sensor_id;sensor_type;location;lat;lon;timestamp;temperature;humidity
3770;DHT22;1900;48.890;9.190;2023-04-25T00:01:17;15.40;49.70
3770;DHT22;1900;48.890;9.190;2023-04-25T00:03:43;15.30;49.60
3770;DHT22;1900;48.890;9.190;2023-04-25T00:06:08;15.30;49.70
3770;DHT22;1900;48.890;9.190;2023-04-25T00:08:34;15.30;49.70
3770;DHT22;1900;48.890;9.190;2023-04-25T00:11:00;15.20;49.60
3770;DHT22;1900;48.890;9.190;2023-04-25T00:13:26;15.20;49.70
3770;DHT22;1900;48.890;9.190;2023-04-25T00:15:52;15.20;49.80
3770;DHT22;1900;48.890;9.190;2023-04-25T00:18:25;15.10;49.80
3770;DHT22;1900;48.890;9.190;2023-04-25T00:20:54;15.10;50.00
3770;DHT22;1900;48.890;9.190;2023-04-25T00:23:20;15.10;50.10
3770;DHT22;1900;48.890;9.190;2023-04-25T00:25:49;15.10;50.20
3770;DHT22;1900;48.890;9.190;2023-04-25T00:28:15;15.10;50.30
3770;DHT22;1900;48.890;9.190;2023-04-25T00:30:42;15.10;50.30
3770;DHT22;1900;48.890;9.190;2023-04-25T00:33:08;15.20;50.50
3770;DHT22;1900;48.890;9.190;2023-04-25T00:35:34;15.20;50.50
3770;DHT22;1900;48.890;9.190;2023-04-25T00:38:00;15.20;50.60
3770;DHT22;1900;48.890;9.190;2023-04-25T00:40:26;15.10;50.50
3770;DHT22;1900;48.890;9.190;2023-04-25T00:42:52;15.20;50.50
3770;DHT22;1900;48.890;9.190;2023-04-25T00:45:19;15.20;50.50
3770;DHT22;1900;48.890;9.190;2023-04-25T00:47:45;15.20;50.50
3770;DHT22;1900;48.890;9.190;2023-04-25T00:50:12;15.20;50.50
3770;DHT22;1900;48.890;9.190;2023-04-25T00:52:42;15.20;50.50
3770;DHT22;1900;48.890;9.190;2023-04-25T00:55:08;15.20;50.50
3770;DHT22;1900;48.890;9.190;2023-04-25T00:57:35;15.20;50.50
3770;DHT22;1900;48.890;9.190;2023-04-25T01:00:02;15.20;50.50
3770;DHT22;1900;48.890;9.190;2023-04-25T01:02:28;15.20;50.60
3770;DHT22;1900;48.890;9.190;2023-04-25T01:04:55;15.20;50.50
3770;DHT22;1900;48.890;9.190;2023-04-25T01:07:21;15.20;50.40
3770;DHT22;1900;48.890;9.190;2023-04-25T01:09:47;15.10;50.30
3770;DHT22;1900;48.890;9.190;2023-04-25T01:12:13;15.10;50.30
3770;DHT22;1900;48.890;9.190;2023-04-25T01:14:40;15.10;50.30
3770;DHT22;1900;48.890;9.190;2023-04-25T01:17:06;15.10;50.20
3770;DHT22;1900;48.890;9.190;2023-04-25T01:19:33;15.10;50.20
3770;DHT22;1900;48.890;9.190;2023-04-25T01:21:59;15.10;50.20
3770;DHT22;1900;48.890;9.190;2023-04-25T01:24:26;15.00;50.10
3770;DHT22;1900;48.890;9.190;2023-04-25T01:26:52;15.00;50.10
3770;DHT22;1900;48.890;9.190;2023-04-25T01:29:23;15.00;50.20
3770;DHT22;1900;48.890;9.190;2023-04-25T01:31:51;15.00;50.30
3770;DHT22;1900;48.890;9.190;2023-04-25T01:34:16;14.90;50.30
3770;DHT22;1900;48.890;9.190;2023-04-25T01:36:42;15.00;50.40
3770;DHT22;1900;48.890;9.190;2023-04-25T01:39:09;15.00;50.40
3770;DHT22;1900;48.890;9.190;2023-04-25T01:41:34;14.90;50.40
3770;DHT22;1900;48.890;9.190;2023-04-25T01:44:00;14.90;50.40
3770;DHT22;1900;48.890;9.190;2023-04-25T01:46:27;14.90;50.40
3770;DHT22;1900;48.890;9.190;2023-04-25T01:48:53;14.90;50.40
3770;DHT22;1900;48.890;9.190;2023-04-25T01:51:19;14.90;50.40
3770;DHT22;1900;48.890;9.190;2023-04-25T01:53:45;14.90;50.40
3770;DHT22;1900;48.890;9.190;2023-04-25T01:56:11;14.90;50.40
3770;DHT22;1900;48.890;9.190;2023-04-25T01:58:38;14.90;50.40
3770;DHT22;1900;48.890;9.190;2023-04-25T02:01:19;14.90;50.40
3770;DHT22;1900;48.890;9.190;2023-04-25T02:03:55;14.90;50.50
3770;DHT22;1900;48.890;9.190;2023-04-25T02:06:30;14.90;50.50
3770;DHT22;1900;48.890;9.190;2023-04-25T02:08:57;14.90;50.50
3770;DHT22;1900;48.890;9.190;2023-04-25T02:11:22;14.90;50.60
3770;DHT22;1900;48.890;9.190;2023-04-25T02:14:00;14.90;50.60
3770;DHT22;1900;48.890;9.190;2023-04-25T02:16:37;14.90;50.60
3770;DHT22;1900;48.890;9.190;2023-04-25T02:19:06;14.90;50.60
3770;DHT22;1900;48.890;9.190;2023-04-25T02:21:32;14.90;50.60
3770;DHT22;1900;48.890;9.190;2023-04-25T02:24:01;14.90;50.60
3770;DHT22;1900;48.890;9.190;2023-04-25T02:26:28;14.90;50.60
3770;DHT22;1900;48.890;9.190;2023-04-25T02:28:53;14.90;50.60
3770;DHT22;1900;48.890;9.190;2023-04-25T02:31:19;14.90;50.60
3770;DHT22;1900;48.890;9.190;2023-04-25T02:33:45;14.90;50.70
3770;DHT22;1900;48.890;9.190;2023-04-25T02:36:11;14.90;50.70
3770;DHT22;1900;48.890;9.190;2023-04-25T02:38:37;14.90;51.10
3770;DHT22;1900;48.890;9.190;2023-04-25T02:41:04;14.90;50.50
3770;DHT22;1900;48.890;9.190;2023-04-25T02:43:29;14.90;50.50
3770;DHT22;1900;48.890;9.190;2023-04-25T02:45:55;14.80;50.50
3770;DHT22;1900;48.890;9.190;2023-04-25T02:48:21;14.80;50.60
3770;DHT22;1900;48.890;9.190;2023-04-25T02:50:48;14.80;50.60
3770;DHT22;1900;48.890;9.190;2023-04-25T02:53:13;14.80;50.60
3770;DHT22;1900;48.890;9.190;2023-04-25T02:55:45;14.80;50.70
3770;DHT22;1900;48.890;9.190;2023-04-25T02:58:11;14.80;50.70
3770;DHT22;1900;48.890;9.190;2023-04-25T03:00:44;14.80;50.80
3770;DHT22;1900;48.890;9.190;2023-04-25T03:03:10;14.80;50.80
3770;DHT22;1900;48.890;9.190;2023-04-25T03:05:36;14.80;50.80
3770;DHT22;1900;48.890;9.190;2023-04-25T03:08:01;14.80;50.80
3770;DHT22;1900;48.890;9.190;2023-04-25T03:10:28;14.80;50.80
3770;DHT22;1900;48.890;9.190;2023-04-25T03:12:58;14.80;51.30
3770;DHT22;1900;48.890;9.190;2023-04-25T03:15:24;14.80;50.80
3770;DHT22;1900;48.890;9.190;2023-04-25T03:17:51;14.80;50.80
3770;DHT22;1900;48.890;9.190;2023-04-25T03:20:17;14.80;50.80
3770;DHT22;1900;48.890;9.190;2023-04-25T03:22:43;14.80;50.80
3770;DHT22;1900;48.890;9.190;2023-04-25T03:25:09;14.80;50.80
3770;DHT22;1900;48.890;9.190;2023-04-25T03:27:35;14.80;50.80
3770;DHT22;1900;48.890;9.190;2023-04-25T03:30:02;14.80;50.80
3770;DHT22;1900;48.890;9.190;2023-04-25T03:32:28;14.80;50.80
3770;DHT22;1900;48.890;9.190;2023-04-25T03:34:54;14.80;50.80
3770;DHT22;1900;48.890;9.190;2023-04-25T03:37:20;14.80;50.80
3770;DHT22;1900;48.890;9.190;2023-04-25T03:39:45;14.80;50.80
3770;DHT22;1900;48.890;9.190;2023-04-25T03:42:11;14.80;50.80
3770;DHT22;1900;48.890;9.190;2023-04-25T03:44:37;14.80;50.80
3770;DHT22;1900;48.890;9.190;2023-04-25T03:47:03;14.80;50.80
3770;DHT22;1900;48.890;9.190;2023-04-25T03:49:29;14.80;50.90
3770;DHT22;1900;48.890;9.190;2023-04-25T03:52:01;14.80;50.90
3770;DHT22;1900;48.890;9.190;2023-04-25T03:54:29;14.80;50.90
3770;DHT22;1900;48.890;9.190;2023-04-25T03:57:07;14.80;51.00
3770;DHT22;1900;48.890;9.190;2023-04-25T03:59:37;14.80;50.90
3770;DHT22;1900;48.890;9.190;2023-04-25T04:02:02;14.80;50.90
3770;DHT22;1900;48.890;9.190;2023-04-25T04:04:28;14.80;50.90
3770;DHT22;1900;48.890;9.190;2023-04-25T04:06:54;14.80;50.90
3770;DHT22;1900;48.890;9.190;2023-04-25T04:09:24;14.80;50.90
3770;DHT22;1900;48.890;9.190;2023-04-25T04:11:50;14.80;50.90
3770;DHT22;1900;48.890;9.190;2023-04-25T04:14:16;14.80;50.90
3770;DHT22;1900;48.890;9.190;2023-04-25T04:16:44;14.80;51.00
3770;DHT22;1900;48.890;9.190;2023-04-25T04:19:10;14.80;51.00
3770;DHT22;1900;48.890;9.190;2023-04-25T04:21:37;14.80;51.00
3770;DHT22;1900;48.890;9.190;2023-04-25T04:24:04;14.80;51.00
3770;DHT22;1900;48.890;9.190;2023-04-25T04:26:39;14.80;51.00
3770;DHT22;1900;48.890;9.190;2023-04-25T04:29:12;14.80;50.90
3770;DHT22;1900;48.890;9.190;2023-04-25T04:31:55;14.80;50.80
3770;DHT22;1900;48.890;9.190;2023-04-25T04:34:20;14.80;50.90
3770;DHT22;1900;48.890;9.190;2023-04-25T04:36:46;14.80;51.00
3770;DHT22;1900;48.890;9.190;2023-04-25T04:39:12;14.80;51.00
3770;DHT22;1900;48.890;9.190;2023-04-25T04:41:48;14.80;51.00
3770;DHT22;1900;48.890;9.190;2023-04-25T04:44:36;14.80;51.10
3770;DHT22;1900;48.890;9.190;2023-04-25T04:47:11;14.80;51.00
3770;DHT22;1900;48.890;9.190;2023-04-25T04:49:58;14.80;50.90
3770;DHT22;1900;48.890;9.190;2023-04-25T04:52:39;14.70;50.80
3770;DHT22;1900;48.890;9.190;2023-04-25T04:55:43;14.80;50.90
3770;DHT22;1900;48.890;9.190;2023-04-25T04:58:25;14.70;50.80
3770;DHT22;1900;48.890;9.190;2023-04-25T05:01:04;14.70;50.90
3770;DHT22;1900;48.890;9.190;2023-04-25T05:03:53;14.60;50.80
3770;DHT22;1900;48.890;9.190;2023-04-25T05:06:45;14.60;50.80
3770;DHT22;1900;48.890;9.190;2023-04-25T05:09:26;14.60;50.90
3770;DHT22;1900;48.890;9.190;2023-04-25T05:12:04;14.60;51.00
3770;DHT22;1900;48.890;9.190;2023-04-25T05:14:56;14.60;51.10
3770;DHT22;1900;48.890;9.190;2023-04-25T05:17:52;14.60;51.00
3770;DHT22;1900;48.890;9.190;2023-04-25T05:20:31;14.60;50.90
3770;DHT22;1900;48.890;9.190;2023-04-25T05:22:59;14.60;50.90
3770;DHT22;1900;48.890;9.190;2023-04-25T05:25:54;14.60;51.00
3770;DHT22;1900;48.890;9.190;2023-04-25T05:28:42;14.60;51.00
3770;DHT22;1900;48.890;9.190;2023-04-25T05:31:44;14.60;51.20
3770;DHT22;1900;48.890;9.190;2023-04-25T05:34:13;14.60;51.30
3770;DHT22;1900;48.890;9.190;2023-04-25T05:36:45;14.70;51.40
3770;DHT22;1900;48.890;9.190;2023-04-25T05:39:17;14.70;51.40
3770;DHT22;1900;48.890;9.190;2023-04-25T05:42:09;14.70;51.40
3770;DHT22;1900;48.890;9.190;2023-04-25T05:45:07;14.70;51.40
3770;DHT22;1900;48.890;9.190;2023-04-25T05:47:41;14.80;51.50
3770;DHT22;1900;48.890;9.190;2023-04-25T05:50:13;14.80;51.50
3770;DHT22;1900;48.890;9.190;2023-04-25T05:52:52;14.80;51.50
3770;DHT22;1900;48.890;9.190;2023-04-25T05:55:28;14.70;51.20
3770;DHT22;1900;48.890;9.190;2023-04-25T05:57:54;14.70;51.00
3770;DHT22;1900;48.890;9.190;2023-04-25T06:00:21;14.70;51.10
3770;DHT22;1900;48.890;9.190;2023-04-25T06:02:48;14.70;51.30
3770;DHT22;1900;48.890;9.190;2023-04-25T06:05:14;14.60;51.20
3770;DHT22;1900;48.890;9.190;2023-04-25T06:07:40;14.60;51.10
3770;DHT22;1900;48.890;9.190;2023-04-25T06:10:06;14.60;51.20
3770;DHT22;1900;48.890;9.190;2023-04-25T06:12:33;14.60;51.30
3770;DHT22;1900;48.890;9.190;2023-04-25T06:15:00;14.60;51.40
3770;DHT22;1900;48.890;9.190;2023-04-25T06:17:26;14.60;51.40
3770;DHT22;1900;48.890;9.190;2023-04-25T06:19:51;14.70;51.40
3770;DHT22;1900;48.890;9.190;2023-04-25T06:22:18;14.70;51.50
3770;DHT22;1900;48.890;9.190;2023-04-25T06:24:44;14.70;51.60
3770;DHT22;1900;48.890;9.190;2023-04-25T06:27:11;14.70;51.60
3770;DHT22;1900;48.890;9.190;2023-04-25T06:29:36;14.70;51.80
3770;DHT22;1900;48.890;9.190;2023-04-25T06:32:02;14.80;52.10
3770;DHT22;1900;48.890;9.190;2023-04-25T06:34:28;14.80;52.20
3770;DHT22;1900;48.890;9.190;2023-04-25T06:36:54;14.90;52.30
3770;DHT22;1900;48.890;9.190;2023-04-25T06:39:20;14.90;52.40
3770;DHT22;1900;48.890;9.190;2023-04-25T06:41:49;15.00;52.50
3770;DHT22;1900;48.890;9.190;2023-04-25T06:44:34;15.10;52.60
3770;DHT22;1900;48.890;9.190;2023-04-25T06:47:06;15.10;52.50
3770;DHT22;1900;48.890;9.190;2023-04-25T06:49:31;15.20;52.50
3770;DHT22;1900;48.890;9.190;2023-04-25T06:51:57;15.20;52.50
3770;DHT22;1900;48.890;9.190;2023-04-25T06:54:23;15.20;52.50
3770;DHT22;1900;48.890;9.190;2023-04-25T06:56:59;15.30;52.30
3770;DHT22;1900;48.890;9.190;2023-04-25T06:59:26;15.20;52.20
3770;DHT22;1900;48.890;9.190;2023-04-25T07:01:52;15.20;52.10
3770;DHT22;1900;48.890;9.190;2023-04-25T07:04:21;15.20;52.00
3770;DHT22;1900;48.890;9.190;2023-04-25T07:06:54;15.20;52.00
3770;DHT22;1900;48.890;9.190;2023-04-25T07:09:26;15.20;52.10
3770;DHT22;1900;48.890;9.190;2023-04-25T07:11:53;15.20;52.20
3770;DHT22;1900;48.890;9.190;2023-04-25T07:14:19;15.20;52.30
3770;DHT22;1900;48.890;9.190;2023-04-25T07:16:45;15.20;52.30
3770;DHT22;1900;48.890;9.190;2023-04-25T07:19:14;15.20;52.10
3770;DHT22;1900;48.890;9.190;2023-04-25T07:21:40;15.20;52.10
3770;DHT22;1900;48.890;9.190;2023-04-25T07:24:06;15.20;52.20
3770;DHT22;1900;48.890;9.190;2023-04-25T07:26:35;15.20;52.10
3770;DHT22;1900;48.890;9.190;2023-04-25T07:29:18;15.20;52.10
3770;DHT22;1900;48.890;9.190;2023-04-25T07:31:44;15.10;51.80
3770;DHT22;1900;48.890;9.190;2023-04-25T07:34:09;15.10;51.90
3770;DHT22;1900;48.890;9.190;2023-04-25T07:36:37;15.10;52.10
3770;DHT22;1900;48.890;9.190;2023-04-25T07:39:03;15.10;52.20
3770;DHT22;1900;48.890;9.190;2023-04-25T07:41:29;15.10;52.20
3770;DHT22;1900;48.890;9.190;2023-04-25T07:43:55;15.10;52.30
3770;DHT22;1900;48.890;9.190;2023-04-25T07:46:20;15.20;52.50
3770;DHT22;1900;48.890;9.190;2023-04-25T07:48:46;15.20;52.50
3770;DHT22;1900;48.890;9.190;2023-04-25T07:51:13;15.20;52.50
3770;DHT22;1900;48.890;9.190;2023-04-25T07:53:39;15.20;52.60
3770;DHT22;1900;48.890;9.190;2023-04-25T07:56:09;15.30;52.80
3770;DHT22;1900;48.890;9.190;2023-04-25T07:58:38;15.30;52.60
3770;DHT22;1900;48.890;9.190;2023-04-25T08:01:06;15.30;52.50
3770;DHT22;1900;48.890;9.190;2023-04-25T08:03:47;15.30;52.50
3770;DHT22;1900;48.890;9.190;2023-04-25T08:06:19;15.30;52.50
3770;DHT22;1900;48.890;9.190;2023-04-25T08:08:54;15.30;52.30
3770;DHT22;1900;48.890;9.190;2023-04-25T08:11:23;15.30;52.40
3770;DHT22;1900;48.890;9.190;2023-04-25T08:13:49;15.30;52.50
3770;DHT22;1900;48.890;9.190;2023-04-25T08:16:15;15.30;52.40
3770;DHT22;1900;48.890;9.190;2023-04-25T08:18:41;15.20;52.40
3770;DHT22;1900;48.890;9.190;2023-04-25T08:21:07;15.20;52.50
3770;DHT22;1900;48.890;9.190;2023-04-25T08:23:34;15.30;52.70
3770;DHT22;1900;48.890;9.190;2023-04-25T08:26:29;15.30;52.70
3770;DHT22;1900;48.890;9.190;2023-04-25T08:28:56;15.30;52.80
3770;DHT22;1900;48.890;9.190;2023-04-25T08:31:21;15.30;52.80
3770;DHT22;1900;48.890;9.190;2023-04-25T08:33:54;15.30;52.90
3770;DHT22;1900;48.890;9.190;2023-04-25T08:36:25;15.30;52.90
3770;DHT22;1900;48.890;9.190;2023-04-25T08:38:50;15.30;52.80
3770;DHT22;1900;48.890;9.190;2023-04-25T08:41:19;15.40;52.90
3770;DHT22;1900;48.890;9.190;2023-04-25T08:43:48;15.40;52.80
3770;DHT22;1900;48.890;9.190;2023-04-25T08:46:17;15.40;52.80
3770;DHT22;1900;48.890;9.190;2023-04-25T08:49:00;15.40;52.80
3770;DHT22;1900;48.890;9.190;2023-04-25T08:51:27;15.30;52.70
3770;DHT22;1900;48.890;9.190;2023-04-25T08:53:56;15.30;52.70
3770;DHT22;1900;48.890;9.190;2023-04-25T08:56:29;15.30;52.70
3770;DHT22;1900;48.890;9.190;2023-04-25T08:58:55;15.30;52.50
3770;DHT22;1900;48.890;9.190;2023-04-25T09:01:21;15.30;52.30
3770;DHT22;1900;48.890;9.190;2023-04-25T09:03:51;15.20;52.30
3770;DHT22;1900;48.890;9.190;2023-04-25T09:06:17;15.20;52.40
3770;DHT22;1900;48.890;9.190;2023-04-25T09:08:45;15.20;52.50
3770;DHT22;1900;48.890;9.190;2023-04-25T09:11:13;15.10;52.40
3770;DHT22;1900;48.890;9.190;2023-04-25T09:13:40;15.10;52.60
3770;DHT22;1900;48.890;9.190;2023-04-25T09:16:21;15.10;52.60
3770;DHT22;1900;48.890;9.190;2023-04-25T09:19:32;15.10;52.40
3770;DHT22;1900;48.890;9.190;2023-04-25T09:22:02;15.10;52.50
3770;DHT22;1900;48.890;9.190;2023-04-25T09:24:38;15.00;52.40
3770;DHT22;1900;48.890;9.190;2023-04-25T09:27:06;15.00;52.50
3770;DHT22;1900;48.890;9.190;2023-04-25T09:29:34;15.00;52.50
3770;DHT22;1900;48.890;9.190;2023-04-25T09:32:19;15.00;52.40
3770;DHT22;1900;48.890;9.190;2023-04-25T09:34:56;14.90;52.30
3770;DHT22;1900;48.890;9.190;2023-04-25T09:40:06;14.90;52.30
3770;DHT22;1900;48.890;9.190;2023-04-25T09:42:41;14.80;52.30
3770;DHT22;1900;48.890;9.190;2023-04-25T09:45:07;14.80;52.40
3770;DHT22;1900;48.890;9.190;2023-04-25T09:47:38;14.80;52.50
3770;DHT22;1900;48.890;9.190;2023-04-25T09:50:17;14.80;52.60
3770;DHT22;1900;48.890;9.190;2023-04-25T09:53:05;14.80;52.70
3770;DHT22;1900;48.890;9.190;2023-04-25T09:55:47;14.80;52.80
3770;DHT22;1900;48.890;9.190;2023-04-25T09:58:14;14.80;52.80
3770;DHT22;1900;48.890;9.190;2023-04-25T10:00:40;14.90;52.90
3770;DHT22;1900;48.890;9.190;2023-04-25T10:03:20;14.90;53.00
3770;DHT22;1900;48.890;9.190;2023-04-25T10:06:19;14.90;53.00
3770;DHT22;1900;48.890;9.190;2023-04-25T10:08:50;14.90;53.00
3770;DHT22;1900;48.890;9.190;2023-04-25T10:11:17;14.90;53.50
3770;DHT22;1900;48.890;9.190;2023-04-25T10:13:43;14.90;52.90
3770;DHT22;1900;48.890;9.190;2023-04-25T10:16:10;14.90;52.80
3770;DHT22;1900;48.890;9.190;2023-04-25T10:18:37;14.80;52.50
3770;DHT22;1900;48.890;9.190;2023-04-25T10:21:04;14.80;52.60
3770;DHT22;1900;48.890;9.190;2023-04-25T10:23:31;14.80;52.30
3770;DHT22;1900;48.890;9.190;2023-04-25T10:25:58;14.70;52.30
3770;DHT22;1900;48.890;9.190;2023-04-25T10:28:24;14.60;52.30
3770;DHT22;1900;48.890;9.190;2023-04-25T10:31:02;14.60;52.20
3770;DHT22;1900;48.890;9.190;2023-04-25T10:33:42;14.50;51.90
3770;DHT22;1900;48.890;9.190;2023-04-25T10:36:13;14.40;51.90
3770;DHT22;1900;48.890;9.190;2023-04-25T10:38:39;14.30;51.70
3770;DHT22;1900;48.890;9.190;2023-04-25T10:41:06;14.20;51.70
3770;DHT22;1900;48.890;9.190;2023-04-25T10:46:23;14.00;51.60
3770;DHT22;1900;48.890;9.190;2023-04-25T10:48:50;14.00;52.20
3770;DHT22;1900;48.890;9.190;2023-04-25T10:51:24;13.90;52.00
3770;DHT22;1900;48.890;9.190;2023-04-25T10:54:02;13.90;52.10
3770;DHT22;1900;48.890;9.190;2023-04-25T10:59:17;13.90;52.30
3770;DHT22;1900;48.890;9.190;2023-04-25T11:01:53;13.90;52.50
3770;DHT22;1900;48.890;9.190;2023-04-25T11:04:33;13.90;52.50
3770;DHT22;1900;48.890;9.190;2023-04-25T11:07:07;13.90;52.70
3770;DHT22;1900;48.890;9.190;2023-04-25T11:09:38;14.00;52.70
3770;DHT22;1900;48.890;9.190;2023-04-25T11:12:06;14.00;52.80
3770;DHT22;1900;48.890;9.190;2023-04-25T11:14:32;14.00;52.80
3770;DHT22;1900;48.890;9.190;2023-04-25T11:16:58;14.00;53.20
3770;DHT22;1900;48.890;9.190;2023-04-25T11:19:25;14.10;52.90
3770;DHT22;1900;48.890;9.190;2023-04-25T11:21:58;14.10;52.80
3770;DHT22;1900;48.890;9.190;2023-04-25T11:26:53;14.10;52.90
3770;DHT22;1900;48.890;9.190;2023-04-25T11:29:22;14.10;53.00
3770;DHT22;1900;48.890;9.190;2023-04-25T11:31:48;14.10;53.10
3770;DHT22;1900;48.890;9.190;2023-04-25T11:34:18;14.10;52.80
3770;DHT22;1900;48.890;9.190;2023-04-25T11:36:45;14.10;52.80
3770;DHT22;1900;48.890;9.190;2023-04-25T11:39:11;14.10;52.80
3770;DHT22;1900;48.890;9.190;2023-04-25T11:41:38;14.10;52.80
3770;DHT22;1900;48.890;9.190;2023-04-25T11:44:04;14.10;52.80
3770;DHT22;1900;48.890;9.190;2023-04-25T11:46:30;14.10;52.80
3770;DHT22;1900;48.890;9.190;2023-04-25T11:48:59;14.10;52.90
3770;DHT22;1900;48.890;9.190;2023-04-25T11:51:25;14.10;52.90
3770;DHT22;1900;48.890;9.190;2023-04-25T11:53:51;14.10;52.90
3770;DHT22;1900;48.890;9.190;2023-04-25T11:56:17;14.10;52.90
3770;DHT22;1900;48.890;9.190;2023-04-25T11:59:03;14.20;53.10
3770;DHT22;1900;48.890;9.190;2023-04-25T12:01:37;14.20;53.30
3770;DHT22;1900;48.890;9.190;2023-04-25T12:04:21;14.20;53.30
3770;DHT22;1900;48.890;9.190;2023-04-25T12:06:49;14.20;53.30
3770;DHT22;1900;48.890;9.190;2023-04-25T12:09:20;14.30;53.40
3770;DHT22;1900;48.890;9.190;2023-04-25T12:11:55;14.30;53.50
3770;DHT22;1900;48.890;9.190;2023-04-25T12:14:28;14.30;53.50
3770;DHT22;1900;48.890;9.190;2023-04-25T12:16:56;14.30;53.40
3770;DHT22;1900;48.890;9.190;2023-04-25T12:19:23;14.40;53.50
3770;DHT22;1900;48.890;9.190;2023-04-25T12:21:50;14.40;53.50
3770;DHT22;1900;48.890;9.190;2023-04-25T12:24:24;14.40;53.50
3770;DHT22;1900;48.890;9.190;2023-04-25T12:29:25;14.40;53.50
3770;DHT22;1900;48.890;9.190;2023-04-25T12:31:53;14.50;53.60
3770;DHT22;1900;48.890;9.190;2023-04-25T12:34:20;14.50;53.60
3770;DHT22;1900;48.890;9.190;2023-04-25T12:36:46;14.50;53.60
3770;DHT22;1900;48.890;9.190;2023-04-25T12:39:23;14.60;53.80
3770;DHT22;1900;48.890;9.190;2023-04-25T12:41:51;14.60;53.90
3770;DHT22;1900;48.890;9.190;2023-04-25T12:44:20;14.60;54.10
3770;DHT22;1900;48.890;9.190;2023-04-25T12:46:47;14.70;54.20
3770;DHT22;1900;48.890;9.190;2023-04-25T12:49:12;14.80;54.40
3770;DHT22;1900;48.890;9.190;2023-04-25T12:51:38;14.80;54.40
3770;DHT22;1900;48.890;9.190;2023-04-25T12:54:05;14.90;54.60
3770;DHT22;1900;48.890;9.190;2023-04-25T12:56:32;15.00;54.70
3770;DHT22;1900;48.890;9.190;2023-04-25T12:58:58;15.10;54.90
3770;DHT22;1900;48.890;9.190;2023-04-25T13:01:26;15.10;55.00
3770;DHT22;1900;48.890;9.190;2023-04-25T13:03:52;15.20;54.80
3770;DHT22;1900;48.890;9.190;2023-04-25T13:06:19;15.20;54.80
3770;DHT22;1900;48.890;9.190;2023-04-25T13:08:45;15.30;54.90
3770;DHT22;1900;48.890;9.190;2023-04-25T13:11:11;15.30;55.10
3770;DHT22;1900;48.890;9.190;2023-04-25T13:13:37;15.40;55.00
3770;DHT22;1900;48.890;9.190;2023-04-25T13:16:04;15.40;54.90
3770;DHT22;1900;48.890;9.190;2023-04-25T13:18:32;15.40;55.10
3770;DHT22;1900;48.890;9.190;2023-04-25T13:20:59;15.50;55.30
3770;DHT22;1900;48.890;9.190;2023-04-25T13:23:26;15.60;55.40
3770;DHT22;1900;48.890;9.190;2023-04-25T13:25:52;15.60;55.40
3770;DHT22;1900;48.890;9.190;2023-04-25T13:28:18;15.60;55.40
3770;DHT22;1900;48.890;9.190;2023-04-25T13:30:44;15.70;55.30
3770;DHT22;1900;48.890;9.190;2023-04-25T13:33:11;15.70;55.10
3770;DHT22;1900;48.890;9.190;2023-04-25T13:35:38;15.70;55.20
3770;DHT22;1900;48.890;9.190;2023-04-25T13:38:04;15.70;55.00
3770;DHT22;1900;48.890;9.190;2023-04-25T13:40:30;15.70;54.90
3770;DHT22;1900;48.890;9.190;2023-04-25T13:42:56;15.70;54.90
3770;DHT22;1900;48.890;9.190;2023-04-25T13:45:22;15.60;55.00
3770;DHT22;1900;48.890;9.190;2023-04-25T13:47:47;15.70;55.00
3770;DHT22;1900;48.890;9.190;2023-04-25T13:50:13;15.70;55.00
3770;DHT22;1900;48.890;9.190;2023-04-25T13:52:39;15.70;55.30
3770;DHT22;1900;48.890;9.190;2023-04-25T13:55:06;15.70;55.20
3770;DHT22;1900;48.890;9.190;2023-04-25T13:57:33;15.80;55.50
3770;DHT22;1900;48.890;9.190;2023-04-25T13:59:59;15.80;55.50
3770;DHT22;1900;48.890;9.190;2023-04-25T14:02:32;15.80;55.50
3770;DHT22;1900;48.890;9.190;2023-04-25T14:04:57;15.90;55.50
3770;DHT22;1900;48.890;9.190;2023-04-25T14:07:23;15.90;55.50
3770;DHT22;1900;48.890;9.190;2023-04-25T14:09:50;15.90;55.60
3770;DHT22;1900;48.890;9.190;2023-04-25T14:12:16;16.00;55.70
3770;DHT22;1900;48.890;9.190;2023-04-25T14:14:41;16.00;55.80
3770;DHT22;1900;48.890;9.190;2023-04-25T14:17:08;16.10;55.70
3770;DHT22;1900;48.890;9.190;2023-04-25T14:19:34;16.10;55.90
3770;DHT22;1900;48.890;9.190;2023-04-25T14:21:59;16.20;56.20
3770;DHT22;1900;48.890;9.190;2023-04-25T14:24:25;16.30;56.30
3770;DHT22;1900;48.890;9.190;2023-04-25T14:26:51;16.30;56.30
3770;DHT22;1900;48.890;9.190;2023-04-25T14:29:18;16.40;56.50
3770;DHT22;1900;48.890;9.190;2023-04-25T14:31:43;16.50;56.60
3770;DHT22;1900;48.890;9.190;2023-04-25T14:34:10;16.50;56.40
3770;DHT22;1900;48.890;9.190;2023-04-25T14:36:36;16.60;56.30
3770;DHT22;1900;48.890;9.190;2023-04-25T14:39:03;16.60;55.90
3770;DHT22;1900;48.890;9.190;2023-04-25T14:41:30;16.60;55.70
3770;DHT22;1900;48.890;9.190;2023-04-25T14:43:59;16.50;55.40
3770;DHT22;1900;48.890;9.190;2023-04-25T14:46:24;16.50;55.30
3770;DHT22;1900;48.890;9.190;2023-04-25T14:48:51;16.40;55.40
3770;DHT22;1900;48.890;9.190;2023-04-25T14:51:16;16.40;55.50
3770;DHT22;1900;48.890;9.190;2023-04-25T14:53:42;16.40;55.60
3770;DHT22;1900;48.890;9.190;2023-04-25T14:56:08;16.50;55.80
3770;DHT22;1900;48.890;9.190;2023-04-25T14:58:34;16.50;55.80
3770;DHT22;1900;48.890;9.190;2023-04-25T15:01:00;16.50;55.70
3770;DHT22;1900;48.890;9.190;2023-04-25T15:03:26;16.50;55.70
3770;DHT22;1900;48.890;9.190;2023-04-25T15:05:55;16.50;55.40
3770;DHT22;1900;48.890;9.190;2023-04-25T15:08:21;16.40;55.30
3770;DHT22;1900;48.890;9.190;2023-04-25T15:10:47;16.40;55.30
3770;DHT22;1900;48.890;9.190;2023-04-25T15:13:12;16.40;55.30
3770;DHT22;1900;48.890;9.190;2023-04-25T15:15:38;16.30;55.10
3770;DHT22;1900;48.890;9.190;2023-04-25T15:18:04;16.30;55.20
3770;DHT22;1900;48.890;9.190;2023-04-25T15:20:30;16.30;55.30
3770;DHT22;1900;48.890;9.190;2023-04-25T15:22:57;16.30;55.40
3770;DHT22;1900;48.890;9.190;2023-04-25T15:25:23;16.30;55.40
3770;DHT22;1900;48.890;9.190;2023-04-25T15:27:49;16.30;55.20
3770;DHT22;1900;48.890;9.190;2023-04-25T15:30:17;16.30;55.30
3770;DHT22;1900;48.890;9.190;2023-04-25T15:32:44;16.30;55.30
3770;DHT22;1900;48.890;9.190;2023-04-25T15:35:10;16.30;55.30
3770;DHT22;1900;48.890;9.190;2023-04-25T15:37:36;16.30;55.40
3770;DHT22;1900;48.890;9.190;2023-04-25T15:40:06;16.30;55.40
3770;DHT22;1900;48.890;9.190;2023-04-25T15:42:45;16.40;55.50
3770;DHT22;1900;48.890;9.190;2023-04-25T15:45:19;16.40;55.50
3770;DHT22;1900;48.890;9.190;2023-04-25T15:47:46;16.40;55.50
3770;DHT22;1900;48.890;9.190;2023-04-25T15:50:12;16.40;55.60
3770;DHT22;1900;48.890;9.190;2023-04-25T15:52:39;16.40;55.70
3770;DHT22;1900;48.890;9.190;2023-04-25T15:55:06;16.50;55.80
3770;DHT22;1900;48.890;9.190;2023-04-25T15:57:34;16.50;55.70
3770;DHT22;1900;48.890;9.190;2023-04-25T16:00:01;16.50;55.50
3770;DHT22;1900;48.890;9.190;2023-04-25T16:02:37;16.50;55.50
3770;DHT22;1900;48.890;9.190;2023-04-25T16:05:04;16.50;55.50
3770;DHT22;1900;48.890;9.190;2023-04-25T16:07:29;16.50;55.40
3770;DHT22;1900;48.890;9.190;2023-04-25T16:09:55;16.50;55.50
3770;DHT22;1900;48.890;9.190;2023-04-25T16:12:21;16.50;55.30
3770;DHT22;1900;48.890;9.190;2023-04-25T16:14:46;16.50;55.30
3770;DHT22;1900;48.890;9.190;2023-04-25T16:17:12;16.50;55.20
3770;DHT22;1900;48.890;9.190;2023-04-25T16:19:38;16.40;55.10
3770;DHT22;1900;48.890;9.190;2023-04-25T16:22:03;16.40;55.00
3770;DHT22;1900;48.890;9.190;2023-04-25T16:24:30;16.40;55.20
3770;DHT22;1900;48.890;9.190;2023-04-25T16:26:56;16.40;55.20
3770;DHT22;1900;48.890;9.190;2023-04-25T16:29:22;16.40;55.10